createdAt,value
2023-01-11T00:01:20.287Z,335.43
2023-01-11T00:03:46.944Z,261.43
2023-01-11T00:06:13.646Z,266.27
2023-01-11T00:08:40.080Z,267.27
2023-01-11T00:11:13.671Z,323.20
2023-01-11T00:13:40.163Z,258.00
2023-01-11T00:16:07.904Z,350.33
2023-01-11T00:18:34.818Z,304.03
2023-01-11T00:21:05.710Z,299.60
2023-01-11T00:23:33.257Z,224.03
2023-01-11T00:26:02.619Z,242.57
2023-01-11T00:28:29.045Z,311.03
2023-01-11T00:30:55.565Z,249.87
2023-01-11T00:33:22.024Z,201.60
2023-01-11T00:35:51.323Z,296.10
2023-01-11T00:38:38.635Z,219.73
2023-01-11T00:41:25.710Z,297.43
2023-01-11T00:44:11.098Z,186.03
2023-01-11T00:46:56.348Z,249.83
2023-01-11T00:49:23.035Z,279.23
2023-01-11T00:51:49.446Z,272.90
2023-01-11T00:54:15.975Z,274.33
2023-01-11T00:56:42.423Z,297.30
2023-01-11T00:59:09.120Z,360.97
2023-01-11T01:01:36.150Z,258.27
2023-01-11T01:04:03.011Z,246.07
2023-01-11T01:06:29.568Z,356.37
2023-01-11T01:08:56.371Z,283.90
2023-01-11T01:11:23.341Z,360.30
2023-01-11T01:14:08.488Z,405.13
2023-01-11T01:16:35.000Z,214.27
2023-01-11T01:19:01.666Z,407.40
2023-01-11T01:21:28.115Z,352.13
2023-01-11T01:23:54.944Z,471.40
2023-01-11T01:26:21.795Z,450.30
2023-01-11T01:28:48.764Z,558.40
2023-01-11T01:31:15.252Z,334.37
2023-01-11T01:33:41.899Z,507.90
2023-01-11T01:36:08.761Z,330.57
2023-01-11T01:38:35.326Z,501.37
2023-01-11T01:41:01.783Z,268.10
2023-01-11T01:43:54.017Z,400.80
2023-01-11T01:46:22.872Z,381.97
2023-01-11T01:49:02.364Z,304.90
2023-01-11T01:51:33.664Z,323.67
2023-01-11T01:54:04.966Z,560.47
2023-01-11T01:57:01.959Z,307.37
2023-01-11T01:59:30.300Z,453.53
2023-01-11T02:01:57.347Z,424.60
2023-01-11T02:04:29.769Z,425.03
2023-01-11T02:07:02.023Z,332.27
2023-01-11T02:09:34.930Z,344.43
2023-01-11T02:12:02.474Z,340.83
2023-01-11T02:14:29.488Z,253.30
2023-01-11T02:16:55.990Z,221.97
2023-01-11T02:19:45.557Z,250.93
2023-01-11T02:22:46.598Z,242.67
2023-01-11T02:25:20.703Z,234.60
2023-01-11T02:28:10.933Z,248.40
2023-01-11T02:30:47.990Z,342.67
2023-01-11T02:33:24.266Z,243.60
2023-01-11T02:35:57.887Z,250.47
2023-01-11T02:38:44.903Z,269.13
2023-01-11T02:41:26.945Z,258.87
2023-01-11T02:44:29.928Z,257.00
2023-01-11T02:47:02.843Z,196.87
2023-01-11T02:49:50.442Z,317.07
2023-01-11T02:52:29.395Z,320.00
2023-01-11T02:54:57.967Z,303.27
2023-01-11T02:57:25.764Z,258.40
2023-01-11T02:59:54.957Z,290.07
2023-01-11T03:02:21.493Z,245.77
2023-01-11T03:04:47.994Z,221.03
2023-01-11T03:07:41.050Z,252.80
2023-01-11T03:10:18.780Z,242.33
2023-01-11T03:12:52.365Z,257.93
2023-01-11T03:15:47.397Z,213.47
2023-01-11T03:18:35.216Z,167.47
2023-01-11T03:21:24.378Z,219.03
2023-01-11T03:24:12.511Z,219.53
2023-01-11T03:27:23.775Z,258.10
2023-01-11T03:30:15.775Z,216.97
2023-01-11T03:32:48.787Z,293.07
2023-01-11T03:35:26.272Z,242.43
2023-01-11T03:38:02.692Z,341.10
2023-01-11T03:40:36.618Z,230.97
2023-01-11T03:43:11.489Z,232.20
2023-01-11T03:45:50.292Z,201.33
2023-01-11T03:48:29.175Z,162.53
2023-01-11T03:50:56.523Z,261.67
2023-01-11T03:53:24.049Z,165.23
2023-01-11T03:55:56.639Z,227.27
2023-01-11T03:58:25.441Z,189.33
2023-01-11T04:00:52.077Z,179.03
2023-01-11T04:03:18.995Z,211.10
2023-01-11T04:05:49.001Z,222.83
2023-01-11T04:08:15.388Z,179.90
2023-01-11T04:10:41.780Z,208.50
2023-01-11T04:13:08.242Z,171.33
2023-01-11T04:15:35.738Z,178.40
2023-01-11T04:18:05.763Z,160.50
2023-01-11T04:20:33.868Z,231.47
2023-01-11T04:23:00.365Z,193.67
2023-01-11T04:25:26.996Z,249.93
2023-01-11T04:27:53.747Z,238.53
2023-01-11T04:30:20.509Z,235.73
2023-01-11T04:32:46.981Z,220.47
2023-01-11T04:35:13.782Z,253.67
2023-01-11T04:37:40.197Z,250.83
2023-01-11T04:40:07.323Z,209.57
2023-01-11T04:42:33.978Z,178.17
2023-01-11T04:45:00.424Z,192.60
2023-01-11T04:47:26.928Z,172.13
2023-01-11T04:49:53.361Z,163.87
2023-01-11T04:52:20.632Z,177.03
2023-01-11T04:54:48.601Z,194.20
2023-01-11T04:57:16.964Z,154.10
2023-01-11T04:59:43.506Z,169.17
2023-01-11T05:02:09.939Z,156.00
2023-01-11T05:04:36.399Z,193.70
2023-01-11T05:07:03.058Z,169.47
2023-01-11T05:09:29.579Z,128.47
2023-01-11T05:11:56.269Z,174.80
2023-01-11T05:14:22.976Z,142.57
2023-01-11T05:16:49.564Z,100.60
2023-01-11T05:19:16.194Z,112.60
2023-01-11T05:21:42.771Z,110.73
2023-01-11T05:24:12.338Z,116.77
2023-01-11T05:26:40.974Z,126.37
2023-01-11T05:29:10.109Z,116.97
2023-01-11T05:31:37.619Z,105.77
2023-01-11T05:34:06.872Z,114.00
2023-01-11T05:36:34.121Z,103.03
2023-01-11T05:39:00.910Z,99.43
2023-01-11T05:41:27.947Z,103.63
2023-01-11T05:44:15.086Z,93.37
2023-01-11T05:46:42.921Z,115.93
2023-01-11T05:49:10.526Z,88.83
2023-01-11T05:51:38.231Z,92.87
2023-01-11T05:54:06.673Z,102.57
2023-01-11T05:56:33.437Z,101.70
2023-01-11T05:58:59.929Z,105.37
2023-01-11T06:01:26.525Z,92.00
2023-01-11T06:03:53.015Z,88.67
2023-01-11T06:06:20.987Z,122.90
2023-01-11T06:08:47.699Z,126.53
2023-01-11T06:11:14.884Z,129.80
2023-01-11T06:13:41.683Z,117.67
2023-01-11T06:16:12.222Z,114.13
2023-01-11T06:18:43.894Z,105.87
2023-01-11T06:21:10.934Z,100.87
2023-01-11T06:23:40.634Z,112.87
2023-01-11T06:26:10.785Z,119.53
2023-01-11T06:28:37.961Z,126.53
2023-01-11T06:31:05.003Z,104.33
2023-01-11T06:33:32.083Z,113.17
2023-01-11T06:35:59.067Z,109.80
2023-01-11T06:38:26.226Z,103.77
2023-01-11T06:40:58.067Z,106.57
2023-01-11T06:43:25.430Z,109.07
2023-01-11T06:45:52.308Z,108.50
2023-01-11T06:48:20.195Z,100.77
2023-01-11T06:50:50.595Z,105.87
2023-01-11T06:53:17.465Z,113.37
2023-01-11T06:55:44.099Z,99.13
2023-01-11T06:58:10.900Z,103.00
2023-01-11T07:00:38.547Z,108.30
2023-01-11T07:03:06.052Z,117.30
2023-01-11T07:05:33.691Z,90.57
2023-01-11T07:08:00.301Z,90.43
2023-01-11T07:10:27.040Z,99.00
2023-01-11T07:12:53.629Z,83.13
2023-01-11T07:15:22.185Z,66.57
2023-01-11T07:17:54.062Z,69.43
2023-01-11T07:20:21.007Z,62.73
2023-01-11T07:22:47.521Z,65.67
2023-01-11T07:25:14.230Z,60.57
2023-01-11T07:27:40.675Z,59.13
2023-01-11T07:30:09.787Z,57.47
2023-01-11T07:32:36.707Z,67.03
2023-01-11T07:35:03.401Z,59.70
2023-01-11T07:37:32.728Z,59.77
2023-01-11T07:39:59.533Z,54.73
2023-01-11T07:42:44.915Z,61.10
2023-01-11T07:45:11.508Z,62.33
2023-01-11T07:47:37.975Z,72.37
2023-01-11T07:50:04.909Z,60.33
2023-01-11T07:52:31.407Z,65.97
2023-01-11T07:55:02.293Z,54.07
2023-01-11T07:57:29.850Z,59.07
2023-01-11T07:59:56.442Z,57.43
2023-01-11T08:02:23.105Z,58.30
2023-01-11T08:04:50.420Z,53.83
2023-01-11T08:07:16.993Z,59.70
2023-01-11T08:09:43.478Z,53.07
2023-01-11T08:12:28.761Z,56.57
2023-01-11T08:14:55.222Z,54.87
2023-01-11T08:17:21.737Z,60.47
2023-01-11T08:19:48.298Z,57.37
2023-01-11T08:22:14.806Z,61.50
2023-01-11T08:24:41.302Z,53.27
2023-01-11T08:27:07.961Z,49.43
2023-01-11T08:29:34.669Z,51.83
2023-01-11T08:32:01.638Z,52.70
2023-01-11T08:34:29.258Z,49.27
2023-01-11T08:37:01.990Z,50.57
2023-01-11T08:39:31.884Z,52.77
2023-01-11T08:41:59.223Z,46.73
2023-01-11T08:44:33.714Z,46.53
2023-01-11T08:47:00.885Z,41.00
2023-01-11T08:49:27.673Z,44.27
2023-01-11T08:51:54.154Z,47.87
2023-01-11T08:54:20.869Z,48.07
2023-01-11T08:56:47.676Z,45.10
2023-01-11T08:59:14.221Z,49.83
2023-01-11T09:01:40.958Z,44.13
2023-01-11T09:04:23.166Z,48.07
2023-01-11T09:06:50.538Z,43.00
2023-01-11T09:09:17.064Z,45.60
2023-01-11T09:11:56.701Z,47.10
2023-01-11T09:14:25.312Z,45.53
2023-01-11T09:16:52.701Z,47.10
2023-01-11T09:19:22.682Z,41.80
2023-01-11T09:21:49.997Z,38.80
2023-01-11T09:24:16.622Z,46.70
2023-01-11T09:26:43.688Z,46.57
2023-01-11T09:29:11.056Z,51.20
2023-01-11T09:31:37.738Z,44.80
2023-01-11T09:34:04.944Z,41.60
2023-01-11T09:36:33.282Z,40.63
2023-01-11T09:39:02.112Z,44.53
2023-01-11T09:41:37.900Z,41.13
2023-01-11T09:44:16.094Z,45.50
2023-01-11T09:46:49.306Z,46.70
2023-01-11T09:49:43.304Z,43.63
2023-01-11T09:52:36.158Z,46.90
2023-01-11T09:55:02.879Z,43.67
2023-01-11T09:57:32.549Z,60.50
2023-01-11T10:00:14.697Z,47.10
2023-01-11T10:02:44.216Z,44.33
2023-01-11T10:05:18.862Z,48.37
2023-01-11T10:18:29.108Z,45.47
2023-01-11T10:18:38.956Z,49.13
2023-01-11T10:20:40.906Z,41.73
2023-01-11T10:23:28.763Z,45.43
2023-01-11T10:25:58.716Z,45.67
2023-01-11T10:28:35.708Z,46.33
2023-01-11T10:31:29.943Z,43.53
2023-01-11T10:34:16.221Z,47.30
2023-01-11T10:37:03.539Z,40.90
2023-01-11T10:39:55.813Z,39.33
2023-01-11T10:42:29.632Z,41.47
2023-01-11T10:45:13.869Z,43.63
2023-01-11T10:48:07.002Z,43.50
2023-01-11T10:50:38.688Z,36.87
2023-01-11T10:53:17.064Z,36.93
2023-01-11T10:56:15.550Z,39.27
2023-01-11T10:58:54.031Z,41.27
2023-01-11T11:01:24.572Z,37.30
2023-01-11T11:04:20.851Z,37.50
2023-01-11T11:06:50.327Z,38.00
2023-01-11T11:09:35.332Z,36.87
2023-01-11T11:12:19.637Z,38.47
2023-01-11T11:15:11.093Z,34.03
2023-01-11T11:17:40.724Z,42.27
2023-01-11T11:20:22.117Z,36.70
2023-01-11T11:22:52.973Z,45.53
2023-01-11T11:25:29.796Z,43.30
2023-01-11T11:28:06.322Z,36.43
2023-01-11T11:30:38.287Z,40.13
2023-01-11T11:33:24.384Z,32.03
2023-01-11T11:36:05.328Z,47.57
2023-01-11T11:38:34.569Z,37.30
2023-01-11T11:41:05.474Z,32.40
2023-01-11T11:43:34.006Z,35.80
2023-01-11T11:46:18.746Z,34.63
2023-01-11T11:49:13.188Z,40.87
2023-01-11T11:51:42.226Z,31.13
2023-01-11T11:54:30.974Z,32.13
2023-01-11T11:57:42.923Z,35.50
2023-01-11T12:00:31.252Z,33.70
2023-01-11T12:03:22.310Z,29.80
2023-01-11T12:05:54.391Z,31.90
2023-01-11T12:08:22.405Z,31.00
2023-01-11T12:10:53.456Z,31.63
2023-01-11T12:13:31.899Z,29.43
2023-01-11T12:16:01.386Z,32.87
2023-01-11T12:18:38.599Z,30.50
2023-01-11T12:21:21.762Z,30.47
2023-01-11T12:23:55.165Z,29.57
2023-01-11T12:26:36.896Z,30.27
2023-01-11T12:29:06.474Z,32.87
2023-01-11T12:31:50.391Z,27.43
2023-01-11T12:34:34.458Z,32.60
2023-01-11T12:37:31.033Z,28.37
2023-01-11T12:40:28.627Z,26.43
2023-01-11T12:43:04.170Z,31.03
2023-01-11T12:46:07.198Z,39.87
2023-01-11T12:48:49.804Z,35.13
2023-01-11T12:51:18.738Z,32.00
2023-01-11T12:54:00.671Z,24.97
2023-01-11T12:56:39.793Z,27.47
2023-01-11T12:59:22.193Z,31.50
2023-01-11T13:01:56.680Z,31.00
2023-01-11T13:04:41.334Z,29.60
2023-01-11T13:07:31.027Z,32.93
2023-01-11T13:10:13.772Z,29.10
2023-01-11T13:12:49.421Z,26.03
2023-01-11T13:15:42.272Z,33.80
2023-01-11T13:18:23.461Z,32.80
2023-01-11T13:21:02.568Z,30.13
2023-01-11T13:23:40.433Z,31.53
2023-01-11T13:26:21.127Z,32.80
2023-01-11T13:28:51.979Z,39.17
2023-01-11T13:31:20.135Z,32.10
2023-01-11T13:33:50.602Z,32.83
2023-01-11T13:36:23.778Z,30.50
2023-01-11T13:39:13.718Z,31.80
2023-01-11T13:41:50.976Z,32.27
2023-01-11T13:44:42.404Z,33.87
2023-01-11T13:47:23.238Z,34.83
2023-01-11T13:49:58.870Z,35.93
2023-01-11T13:52:46.157Z,30.40
2023-01-11T13:55:20.876Z,41.23
2023-01-11T13:58:05.703Z,35.43
2023-01-11T14:00:38.339Z,35.90
2023-01-11T14:03:26.780Z,36.70
2023-01-11T14:06:07.372Z,37.37
2023-01-11T14:08:43.480Z,38.27
2023-01-11T14:11:42.192Z,41.17
2023-01-11T14:14:27.101Z,37.27
2023-01-11T14:17:31.257Z,32.17
2023-01-11T14:20:03.425Z,33.80
2023-01-11T14:22:40.272Z,41.90
2023-01-11T14:26:02.667Z,35.43
2023-01-11T14:29:12.046Z,40.17
2023-01-11T14:31:56.614Z,37.60
2023-01-11T14:34:32.888Z,34.10
2023-01-11T14:37:01.996Z,30.43
2023-01-11T14:39:44.001Z,36.80
2023-01-11T14:42:32.207Z,41.00
2023-01-11T14:45:19.477Z,42.67
2023-01-11T14:48:03.890Z,45.73
2023-01-11T14:50:42.093Z,43.03
2023-01-11T14:53:11.421Z,38.17
2023-01-11T14:55:45.134Z,44.20
2023-01-11T14:58:30.465Z,41.07
2023-01-11T15:00:57.060Z,40.67
2023-01-11T15:03:23.717Z,40.33
2023-01-11T15:05:52.194Z,36.97
2023-01-11T15:08:23.803Z,38.33
2023-01-11T15:10:57.570Z,37.17
2023-01-11T15:13:26.850Z,37.10
2023-01-11T15:16:38.979Z,40.40
2023-01-11T15:19:11.195Z,43.57
2023-01-11T15:21:42.089Z,34.93
2023-01-11T15:24:25.522Z,41.73
2023-01-11T15:26:52.583Z,47.27
2023-01-11T15:29:30.385Z,40.50
2023-01-11T15:32:06.781Z,44.43
2023-01-11T15:34:39.227Z,39.27
2023-01-11T15:37:10.995Z,42.57
2023-01-11T15:39:54.505Z,50.27
2023-01-11T15:42:26.776Z,45.50
2023-01-11T15:44:56.659Z,49.43
2023-01-11T15:47:53.834Z,43.77
2023-01-11T15:50:52.057Z,49.20
2023-01-11T15:53:41.763Z,49.57
2023-01-11T15:56:37.513Z,46.10
2023-01-11T15:59:20.204Z,44.60
2023-01-11T16:02:08.020Z,47.27
2023-01-11T16:04:39.735Z,48.10
2023-01-11T16:07:20.588Z,44.20
2023-01-11T16:10:02.378Z,44.43
2023-01-11T16:12:45.077Z,49.17
2023-01-11T16:15:23.524Z,61.17
2023-01-11T16:17:50.758Z,44.67
2023-01-11T16:20:23.812Z,48.03
2023-01-11T16:22:57.302Z,51.27
2023-01-11T16:25:28.028Z,42.13
2023-01-11T16:27:56.405Z,40.83
2023-01-11T16:30:26.629Z,45.13
2023-01-11T16:32:53.442Z,44.67
2023-01-11T16:35:25.400Z,44.10
2023-01-11T16:37:56.731Z,39.93
2023-01-11T16:40:30.585Z,41.20
2023-01-11T16:43:05.989Z,40.07
2023-01-11T16:45:47.574Z,39.90
2023-01-11T16:48:22.778Z,36.20
2023-01-11T16:51:14.217Z,41.27
2023-01-11T16:53:42.276Z,43.70
2023-01-11T16:56:23.611Z,36.83
2023-01-11T16:59:15.183Z,41.30
2023-01-11T17:02:25.424Z,37.43
2023-01-11T17:04:54.215Z,40.37
2023-01-11T17:07:22.103Z,39.53
2023-01-11T17:09:48.673Z,41.00
2023-01-11T17:12:22.061Z,38.80
2023-01-11T17:15:33.506Z,40.23
2023-01-11T17:18:05.127Z,40.27
2023-01-11T17:20:32.093Z,33.90
2023-01-11T17:22:59.312Z,39.70
2023-01-11T17:25:41.080Z,37.47
2023-01-11T17:28:17.646Z,40.73
2023-01-11T17:30:45.677Z,41.03
2023-01-11T17:33:26.652Z,40.20
2023-01-11T17:35:54.240Z,36.90
2023-01-11T17:38:23.068Z,39.70
2023-01-11T17:40:51.217Z,37.53
2023-01-11T17:43:43.921Z,35.17
2023-01-11T17:46:25.987Z,32.03
2023-01-11T17:48:56.116Z,31.70
2023-01-11T17:51:33.787Z,35.27
2023-01-11T17:54:00.914Z,34.17
2023-01-11T17:56:33.273Z,30.00
2023-01-11T17:59:30.101Z,33.27
2023-01-11T18:02:15.106Z,33.83
2023-01-11T18:04:41.914Z,27.97
2023-01-11T18:07:15.880Z,29.00
2023-01-11T18:09:46.139Z,34.93
2023-01-11T18:12:21.075Z,32.23
2023-01-11T18:14:53.120Z,34.57
2023-01-11T18:17:30.662Z,32.07
2023-01-11T18:19:57.670Z,29.63
2023-01-11T18:22:40.659Z,32.50
2023-01-11T18:25:24.871Z,30.23
2023-01-11T18:27:52.086Z,34.83
2023-01-11T18:30:30.941Z,29.17
2023-01-11T18:33:02.352Z,32.03
2023-01-11T18:35:30.737Z,34.07
2023-01-11T18:37:57.188Z,30.90
2023-01-11T18:40:23.686Z,29.77
2023-01-11T18:42:52.432Z,29.63
2023-01-11T18:45:20.372Z,26.30
2023-01-11T18:47:46.860Z,29.77
2023-01-11T18:50:13.473Z,29.77
2023-01-11T18:52:40.307Z,31.33
2023-01-11T18:55:06.948Z,37.20
2023-01-11T18:57:33.755Z,30.60
2023-01-11T19:00:00.445Z,32.83
2023-01-11T19:02:28.238Z,34.07
2023-01-11T19:04:56.267Z,34.40
2023-01-11T19:07:24.430Z,34.13
2023-01-11T19:09:50.990Z,35.80
2023-01-11T19:12:18.071Z,30.77
2023-01-11T19:14:45.052Z,32.50
2023-01-11T19:17:12.111Z,34.93
2023-01-11T19:19:38.686Z,37.93
2023-01-11T19:22:05.590Z,32.67
2023-01-11T19:24:32.509Z,33.03
2023-01-11T19:26:59.221Z,30.80
2023-01-11T19:29:26.117Z,28.27
2023-01-11T19:31:53.147Z,31.10
2023-01-11T19:34:20.261Z,28.27
2023-01-11T19:36:48.628Z,29.40
2023-01-11T19:39:15.436Z,32.40
2023-01-11T19:42:01.887Z,31.20
2023-01-11T19:44:37.184Z,27.83
2023-01-11T19:47:12.764Z,32.03
2023-01-11T19:49:40.739Z,28.33
2023-01-11T19:52:14.328Z,30.73
2023-01-11T19:54:42.592Z,28.07
2023-01-11T19:57:10.955Z,26.07
2023-01-11T19:59:37.600Z,30.90
2023-01-11T20:02:05.575Z,27.50
2023-01-11T20:04:32.376Z,28.30
2023-01-11T20:06:59.013Z,29.60
2023-01-11T20:09:25.748Z,29.60
2023-01-11T20:11:53.285Z,31.13
2023-01-11T20:14:22.902Z,32.53
2023-01-11T20:16:49.683Z,34.80
2023-01-11T20:19:16.278Z,34.40
2023-01-11T20:21:43.523Z,34.40
2023-01-11T20:24:12.594Z,34.23
2023-01-11T20:26:39.418Z,38.23
2023-01-11T20:29:06.622Z,35.47
2023-01-11T20:31:35.390Z,37.53
2023-01-11T20:34:13.667Z,38.57
2023-01-11T20:36:40.111Z,43.10
2023-01-11T20:39:07.210Z,41.40
2023-01-11T20:41:49.802Z,39.77
2023-01-11T20:44:23.997Z,45.93
2023-01-11T20:46:52.048Z,45.13
2023-01-11T20:49:20.867Z,46.97
2023-01-11T20:51:47.390Z,44.77
2023-01-11T20:54:14.180Z,45.57
2023-01-11T20:56:45.048Z,40.27
2023-01-11T20:59:13.541Z,49.70
2023-01-11T21:01:40.351Z,49.90
2023-01-11T21:04:08.602Z,50.47
2023-01-11T21:06:37.683Z,43.90
2023-01-11T21:09:05.156Z,51.27
2023-01-11T21:11:32.245Z,51.23
2023-01-11T21:14:00.417Z,51.30
2023-01-11T21:16:29.258Z,47.23
2023-01-11T21:18:58.066Z,50.73
2023-01-11T21:21:25.270Z,46.00
2023-01-11T21:23:57.083Z,46.60
2023-01-11T21:26:24.846Z,52.80
2023-01-11T21:29:03.205Z,47.30
2023-01-11T21:31:34.211Z,49.40
2023-01-11T21:34:01.311Z,50.67
2023-01-11T21:36:30.391Z,50.53
2023-01-11T21:38:58.207Z,49.20
2023-01-11T21:41:45.740Z,49.63
2023-01-11T21:44:13.280Z,49.57
2023-01-11T21:46:44.211Z,53.03
2023-01-11T21:49:13.557Z,50.00
2023-01-11T21:51:40.812Z,49.90
2023-01-11T21:54:09.488Z,52.73
2023-01-11T21:56:36.179Z,54.30
2023-01-11T21:59:03.000Z,51.57
2023-01-11T22:01:29.931Z,52.53
2023-01-11T22:03:57.080Z,51.30
2023-01-11T22:06:23.661Z,50.20
2023-01-11T22:08:50.401Z,49.73
2023-01-11T22:11:17.765Z,49.63
2023-01-11T22:13:44.645Z,49.43
2023-01-11T22:16:14.444Z,50.10
2023-01-11T22:18:41.952Z,48.20
2023-01-11T22:21:13.603Z,51.77
2023-01-11T22:23:40.811Z,44.93
2023-01-11T22:26:12.245Z,47.30
2023-01-11T22:28:57.640Z,49.77
2023-01-11T22:31:25.901Z,52.87
2023-01-11T22:33:52.377Z,49.73
2023-01-11T22:36:19.588Z,52.27
2023-01-11T22:38:47.113Z,57.33
2023-01-11T22:41:14.903Z,51.83
2023-01-11T22:43:43.030Z,49.63
2023-01-11T22:46:14.118Z,50.47
2023-01-11T22:48:41.101Z,48.87
2023-01-11T22:51:08.459Z,50.60
2023-01-11T22:53:43.590Z,48.13
2023-01-11T22:56:11.796Z,48.03
2023-01-11T22:58:38.468Z,57.20
2023-01-11T23:01:12.159Z,47.97
2023-01-11T23:03:39.525Z,58.33
2023-01-11T23:06:07.013Z,45.83
2023-01-11T23:08:37.769Z,48.03
2023-01-11T23:11:04.421Z,50.03
2023-01-11T23:13:49.965Z,53.23
2023-01-11T23:16:16.571Z,53.77
2023-01-11T23:18:43.133Z,51.53
2023-01-11T23:21:09.687Z,48.57
2023-01-11T23:23:38.009Z,52.87
2023-01-11T23:26:05.963Z,51.73
2023-01-11T23:28:33.519Z,53.00
2023-01-11T23:31:00.335Z,50.97
2023-01-11T23:33:26.834Z,49.57
2023-01-11T23:35:58.022Z,53.13
2023-01-11T23:38:25.075Z,53.70
2023-01-11T23:41:10.727Z,50.50
2023-01-11T23:43:40.257Z,49.67
2023-01-11T23:46:25.632Z,56.93
2023-01-11T23:48:52.173Z,55.97
2023-01-11T23:51:21.212Z,55.33
2023-01-11T23:53:47.831Z,55.33
2023-01-11T23:56:15.981Z,52.57
2023-01-11T23:58:42.436Z,54.73
